Sumise Maru No.32 — JD3832 — position and weather

sailwx.info

Track history (hours):
 
Tides and Currents Weather Stations Pressure Air Temp Water Temp Dewpoint Dewpoint Depression Visibility Wind Speed Wind Dir Waves Ship Positions

Sumise Maru No.32

Last reported at 2018-Feb-25 12:55 UTC. Time now 2018-Feb-25 13:21 UTC.
Position N 34°42' E 135°16'.

Length 78 m; draft 4.3 m.

Type: Cargo ship. MMSI: 431006221.

Date/timePositionNaut miles runAvg speedWind from/ knotsBaromVisibWave heightAir tempDewpointWater temp
2018-Feb-25 12:55N 34°42' E 135°16'0 0.0
2018-Feb-25 12:28N 34°42' E 135°16'0 0.0
2018-Feb-25 11:58N 34°42' E 135°16'0 0.0
2018-Feb-25 11:28N 34°42' E 135°16'0 0.0
2018-Feb-25 10:58N 34°42' E 135°16'0 0.0
2018-Feb-25 10:28N 34°42' E 135°16'0 0.0
2018-Feb-25 09:58N 34°42' E 135°16'0 0.0
2018-Feb-25 09:28N 34°42' E 135°16'0 0.0
2018-Feb-25 08:58N 34°42' E 135°16'0 0.0
2018-Feb-25 08:28N 34°42' E 135°16'1 1.9
2018-Feb-25 08:00N 34°42' E 135°17'510.0
2018-Feb-25 07:31N 34°37' E 135°17'611.2
2018-Feb-25 07:00N 34°35' E 135°10'611.1
2018-Feb-25 06:30N 34°35' E 135°03'510.3
2018-Feb-25 06:00N 34°37' E 134°57'511.0
2018-Feb-25 05:31N 34°38' E 134°51'611.7
2018-Feb-25 05:00N 34°39' E 134°44'611.5
2018-Feb-25 04:30N 34°41' E 134°37'611.8
2018-Feb-25 04:00N 34°42' E 134°30'711.7
2018-Feb-25 03:26N 34°43' E 134°22'2 0.8
2018-Feb-25 00:50N 34°45' E 134°22'0 0.1
2018-Feb-25 00:20N 34°45' E 134°22'0 0.1
2018-Feb-24 23:54N 34°45' E 134°22'3 6.6
2018-Feb-24 23:30N 34°42' E 134°23'1 0.0
2018-Feb-24 08:46N 34°42' E 134°23'0 0.0
2018-Feb-24 08:29N 34°42' E 134°23'511.1
2018-Feb-24 08:00N 34°42' E 134°30'612.7
2018-Feb-24 07:30N 34°41' E 134°37'612.9
2018-Feb-24 07:00N 34°39' E 134°45'713.1
2018-Feb-24 06:31N 34°38' E 134°53'713.6
2018-Feb-24 06:00N 34°38' E 135°01'713.3
2018-Feb-24 05:31N 34°36' E 135°09'713.1
2018-Feb-24 05:00N 34°37' E 135°17'612.0
2018-Feb-24 04:31N 34°38' E 135°24'3 6.4
2018-Feb-24 04:01N 34°38' E 135°27'0 0.8
2018-Feb-24 03:28N 34°38' E 135°28'0 0.0
2018-Feb-24 02:58N 34°38' E 135°28'0 0.0
2018-Feb-24 02:28N 34°38' E 135°28'0 0.0
2018-Feb-24 01:55N 34°38' E 135°28'0 0.0
2018-Feb-24 01:28N 34°38' E 135°28'0 0.0
2018-Feb-24 00:55N 34°38' E 135°28'0 0.0
2018-Feb-24 00:28N 34°38' E 135°28'0 0.0
2018-Feb-23 23:58N 34°38' E 135°28'0 0.0
2018-Feb-23 23:28N 34°38' E 135°28'0 0.0
2018-Feb-23 22:58N 34°38' E 135°28'0 0.0
2018-Feb-23 22:22N 34°38' E 135°28'0 0.0
2018-Feb-23 21:58N 34°38' E 135°28'0 0.0
2018-Feb-23 21:22N 34°38' E 135°28'0 0.0
2018-Feb-23 20:58N 34°38' E 135°28'0 0.0
2018-Feb-23 20:30N 34°38' E 135°28'0 0.0
2018-Feb-23 19:58N 34°38' E 135°28'0 0.0
2018-Feb-23 19:28N 34°38' E 135°28'0 0.0
2018-Feb-23 18:58N 34°38' E 135°28'0 0.0
2018-Feb-23 18:28N 34°38' E 135°28'0 0.0
2018-Feb-23 18:01N 34°38' E 135°28'0 0.0
2018-Feb-23 17:28N 34°38' E 135°28'0 0.0
2018-Feb-23 16:58N 34°38' E 135°28'0 0.0
2018-Feb-23 16:28N 34°38' E 135°28'0 0.0
2018-Feb-23 15:58N 34°38' E 135°28'0 0.0
2018-Feb-23 15:31N 34°38' E 135°28'0 0.0
2018-Feb-23 15:01N 34°38' E 135°28'0 0.0
2018-Feb-23 14:30N 34°38' E 135°28'0 0.0
2018-Feb-23 13:58N 34°38' E 135°28'0 0.0
2018-Feb-23 13:30N 34°38' E 135°28'0 0.0
2018-Feb-23 13:01N 34°38' E 135°28'0 0.0
2018-Feb-23 12:28N 34°38' E 135°28'0 0.0
2018-Feb-23 12:01N 34°38' E 135°28'0 0.0
2018-Feb-23 11:31N 34°38' E 135°28'0 0.0
2018-Feb-23 11:01N 34°38' E 135°28'0 0.0
2018-Feb-23 10:30N 34°38' E 135°28'0 0.0
2018-Feb-23 10:00N 34°38' E 135°28'0 0.0
2018-Feb-23 09:31N 34°38' E 135°28'0 0.0
2018-Feb-23 09:01N 34°38' E 135°28'0 0.0
2018-Feb-23 08:30N 34°38' E 135°28'0 0.0
2018-Feb-23 07:57N 34°38' E 135°28'0 0.0
2018-Feb-23 07:25N 34°38' E 135°28'0 0.0
2018-Feb-23 07:00N 34°38' E 135°28'0 0.0
2018-Feb-23 06:31N 34°38' E 135°28'0 0.0
2018-Feb-23 06:00N 34°38' E 135°28'0 0.0
2018-Feb-23 05:30N 34°38' E 135°28'0 0.0
2018-Feb-23 04:57N 34°38' E 135°28'0 0.0
2018-Feb-23 04:28N 34°38' E 135°28'0 0.0
2018-Feb-23 03:58N 34°38' E 135°28'0 0.0
2018-Feb-23 03:30N 34°38' E 135°28'0 0.0
2018-Feb-23 03:01N 34°38' E 135°28'0 0.0
2018-Feb-23 02:30N 34°38' E 135°28'0 0.0
2018-Feb-23 01:57N 34°38' E 135°28'0 0.0
2018-Feb-23 01:31N 34°38' E 135°28'0 0.0
2018-Feb-23 01:00N 34°38' E 135°28'1 2.3
2018-Feb-23 00:30N 34°38' E 135°27'510.0
2018-Feb-23 00:00N 34°37' E 135°21'2 3.8
2018-Feb-22 23:28N 34°35' E 135°19'0 0.1
2018-Feb-22 22:55N 34°35' E 135°19'0 0.1
2018-Feb-22 22:28N 34°35' E 135°19'0 0.0
2018-Feb-22 21:58N 34°35' E 135°19'0 0.0
2018-Feb-22 21:28N 34°35' E 135°19'0 0.0
2018-Feb-22 20:58N 34°35' E 135°19'0 0.0
2018-Feb-22 20:28N 34°35' E 135°19'0 0.0
2018-Feb-22 19:58N 34°35' E 135°19'0 0.0
2018-Feb-22 19:28N 34°35' E 135°19'0 0.0
2018-Feb-22 18:58N 34°35' E 135°19'0 0.0
2018-Feb-22 18:28N 34°35' E 135°19'0 0.0
2018-Feb-22 17:58N 34°35' E 135°19'0 0.0
2018-Feb-22 17:28N 34°35' E 135°19'0 0.0
2018-Feb-22 16:58N 34°35' E 135°19'0 0.0
2018-Feb-22 16:28N 34°35' E 135°19'0 0.8
2018-Feb-22 16:00N 34°35' E 135°18'611.4
2018-Feb-22 15:30N 34°31' E 135°14'612.1
2018-Feb-22 15:01N 34°26' E 135°10'612.5
2018-Feb-22 14:30N 34°21' E 135°06'612.7
2018-Feb-22 14:00N 34°15' E 135°02'612.0
2018-Feb-22 13:30N 34°09' E 134°60'612.1
2018-Feb-22 13:00N 34°03' E 134°57'612.1
2018-Feb-22 12:30N 33°58' E 134°55'612.0
2018-Feb-22 11:59N 33°52' E 134°52'2 0.1
2018-Feb-21 08:32N 33°51' E 134°51'013.6
2018-Feb-21 08:30N 33°51' E 134°51'713.6
2018-Feb-21 07:59N 33°58' E 134°53'613.3
2018-Feb-21 07:30N 34°04' E 134°55'713.4
2018-Feb-21 07:00N 34°11' E 134°56'714.0
2018-Feb-21 06:30N 34°17' E 134°58'612.8
2018-Feb-21 06:00N 34°23' E 135°02'713.3
2018-Feb-21 05:30N 34°27' E 135°08'612.6
2018-Feb-21 05:00N 34°31' E 135°15'612.6
2018-Feb-21 04:30N 34°35' E 135°20'510.3
2018-Feb-21 04:00N 34°35' E 135°27'0 0.7
2018-Feb-21 03:28N 34°34' E 135°27'0 0.0
2018-Feb-21 02:58N 34°34' E 135°27'0 0.0
2018-Feb-21 02:28N 34°34' E 135°27'0 0.0
2018-Feb-21 01:58N 34°34' E 135°27'0 0.0
2018-Feb-21 01:28N 34°34' E 135°27'0 0.0
2018-Feb-21 00:58N 34°34' E 135°27'0 0.0
2018-Feb-21 00:28N 34°34' E 135°27'0 0.0
2018-Feb-20 23:58N 34°34' E 135°27'0 0.0
2018-Feb-20 23:28N 34°34' E 135°27'0 0.0
2018-Feb-20 22:58N 34°34' E 135°27'0 0.0
2018-Feb-20 22:28N 34°34' E 135°27'0 0.9
2018-Feb-20 22:00N 34°35' E 135°27'4 7.2
2018-Feb-20 21:30N 34°36' E 135°23'4 6.9
2018-Feb-20 20:59N 34°35' E 135°19'0 0.0
2018-Feb-20 20:29N 34°35' E 135°19'0 0.0
2018-Feb-20 19:59N 34°35' E 135°19'0 0.0
2018-Feb-20 19:29N 34°35' E 135°19'0 0.0
2018-Feb-20 18:59N 34°35' E 135°19'0 0.0
2018-Feb-20 18:29N 34°35' E 135°19'0 0.0
2018-Feb-20 17:59N 34°35' E 135°19'0 0.0
2018-Feb-20 17:29N 34°35' E 135°19'0 0.1
2018-Feb-20 16:59N 34°35' E 135°19'0 0.1
2018-Feb-20 16:29N 34°35' E 135°19'0 0.1
2018-Feb-20 15:59N 34°35' E 135°19'0 0.1
2018-Feb-20 15:29N 34°35' E 135°19'0 0.0
2018-Feb-20 14:58N 34°35' E 135°19'0 0.0
2018-Feb-20 14:29N 34°35' E 135°19'0 0.1
2018-Feb-20 13:59N 34°35' E 135°19'0 0.0
2018-Feb-20 13:29N 34°35' E 135°19'0 0.0
2018-Feb-20 12:59N 34°35' E 135°19'0 0.1
2018-Feb-20 12:29N 34°35' E 135°19'0 0.0
2018-Feb-20 11:59N 34°35' E 135°19'0 0.0
2018-Feb-20 11:29N 34°35' E 135°19'0 0.0
2018-Feb-20 10:59N 34°35' E 135°19'0 0.0
2018-Feb-20 10:29N 34°35' E 135°19'0 0.0
2018-Feb-20 09:59N 34°35' E 135°19'0 0.0
2018-Feb-20 09:28N 34°35' E 135°19'0 0.0
2018-Feb-20 08:59N 34°35' E 135°19'0 0.0
2018-Feb-20 08:29N 34°35' E 135°19'0 0.0
2018-Feb-20 07:59N 34°35' E 135°19'0 0.0
2018-Feb-20 07:29N 34°35' E 135°19'0 0.1
2018-Feb-20 06:59N 34°35' E 135°19'2 4.6
2018-Feb-20 06:30N 34°35' E 135°16'612.3
2018-Feb-20 06:00N 34°35' E 135°09'611.9
2018-Feb-20 05:30N 34°37' E 135°02'612.1
2018-Feb-20 05:00N 34°37' E 134°55'612.1
2018-Feb-20 04:30N 34°39' E 134°48'611.7
2018-Feb-20 04:00N 34°41' E 134°41'611.4
2018-Feb-20 03:30N 34°42' E 134°34'611.9
2018-Feb-20 02:59N 34°42' E 134°26'4 8.6
2018-Feb-20 02:30N 34°44' E 134°22'1 0.6
2018-Feb-20 01:18N 34°45' E 134°22'0 0.0
2018-Feb-20 01:00N 34°45' E 134°22'0 0.0
2018-Feb-19 23:36N 34°45' E 134°22'0 0.0
2018-Feb-19 23:24N 34°45' E 134°22'1 2.5
2018-Feb-19 22:57N 34°44' E 134°22'2 1.1
2018-Feb-19 21:14N 34°42' E 134°23'0 0.0
2018-Feb-19 17:08N 34°42' E 134°23'0 0.1
2018-Feb-19 16:50N 34°42' E 134°23'0 0.0
2018-Feb-19 12:31N 34°42' E 134°23'0 0.0
2018-Feb-19 12:25N 34°42' E 134°23'0 0.0
2018-Feb-19 11:07N 34°42' E 134°23'0 0.0
2018-Feb-19 10:49N 34°42' E 134°23'0 0.0
2018-Feb-19 10:25N 34°42' E 134°23'0 0.1
2018-Feb-19 09:49N 34°42' E 134°23'0 0.1
2018-Feb-19 09:25N 34°42' E 134°23'0 0.2
2018-Feb-19 08:54N 34°42' E 134°23'3 3.1
2018-Feb-19 07:55N 34°45' E 134°22'0 0.0
2018-Feb-19 01:02N 34°45' E 134°22'0 1.2
2018-Feb-19 00:59N 34°45' E 134°22'3 3.2
2018-Feb-19 00:03N 34°42' E 134°23'0 0.0
2018-Feb-18 23:45N 34°42' E 134°23'0 0.0
2018-Feb-18 20:33N 34°42' E 134°23'0 0.0
2018-Feb-18 20:27N 34°42' E 134°23'0 0.0
2018-Feb-18 16:21N 34°42' E 134°23'0 0.0
2018-Feb-18 13:03N 34°42' E 134°23'0 0.1
2018-Feb-18 12:42N 34°42' E 134°23'1 7.6
2018-Feb-18 12:30N 34°42' E 134°25'612.4
2018-Feb-18 12:00N 34°42' E 134°33'612.3
2018-Feb-18 11:31N 34°40' E 134°40'612.3
2018-Feb-18 11:00N 34°39' E 134°47'612.7
2018-Feb-18 10:30N 34°37' E 134°55'611.9
2018-Feb-18 10:00N 34°37' E 135°02'611.6
2018-Feb-18 09:30N 34°36' E 135°09'611.1
2018-Feb-18 09:01N 34°37' E 135°15'5 9.3
2018-Feb-18 08:30N 34°42' E 135°14'0 0.1
2018-Feb-18 08:00N 34°42' E 135°14'0 0.0
2018-Feb-18 07:30N 34°42' E 135°14'0 0.0
2018-Feb-18 07:00N 34°42' E 135°14'0 0.0
2018-Feb-18 06:30N 34°42' E 135°14'0 0.0
2018-Feb-18 06:00N 34°42' E 135°14'0 0.0
2018-Feb-18 05:30N 34°42' E 135°14'0 0.0
2018-Feb-18 05:00N 34°42' E 135°14'0 0.0
2018-Feb-18 04:30N 34°42' E 135°14'0 0.0
2018-Feb-18 04:00N 34°42' E 135°14'0 0.0
2018-Feb-18 03:30N 34°42' E 135°14'0 0.0
2018-Feb-18 03:00N 34°42' E 135°14'0 0.0
2018-Feb-18 02:30N 34°42' E 135°14'0 0.0
2018-Feb-18 02:00N 34°42' E 135°14'0 0.2
2018-Feb-18 01:30N 34°42' E 135°14'510.1
2018-Feb-18 01:01N 34°37' E 135°16'0 0.6
2018-Feb-18 00:29N 34°37' E 135°16'0 0.0
2018-Feb-17 23:59N 34°37' E 135°16'0 0.0
2018-Feb-17 23:29N 34°37' E 135°16'0 0.0
2018-Feb-17 22:59N 34°37' E 135°16'0 0.1
2018-Feb-17 22:29N 34°37' E 135°16'0 0.1
2018-Feb-17 21:59N 34°37' E 135°16'0 0.0
2018-Feb-17 21:29N 34°37' E 135°16'0 0.0
2018-Feb-17 20:59N 34°37' E 135°16'0 0.0
2018-Feb-17 20:29N 34°37' E 135°16'0 0.0
2018-Feb-17 19:59N 34°37' E 135°16'0 0.0
2018-Feb-17 19:29N 34°37' E 135°16'0 0.0
2018-Feb-17 18:59N 34°37' E 135°16'0 0.0
2018-Feb-17 18:29N 34°37' E 135°16'0 0.0
2018-Feb-17 17:59N 34°37' E 135°16'0 0.0
2018-Feb-17 17:29N 34°37' E 135°16'0 0.0
2018-Feb-17 16:56N 34°37' E 135°16'0 0.0
2018-Feb-17 16:29N 34°37' E 135°16'0 0.0
2018-Feb-17 15:59N 34°37' E 135°16'0 0.0
2018-Feb-17 15:29N 34°37' E 135°16'0 0.0
2018-Feb-17 14:59N 34°37' E 135°16'0 0.0
2018-Feb-17 14:29N 34°37' E 135°16'0 0.0
2018-Feb-17 13:59N 34°37' E 135°16'0 0.0
2018-Feb-17 13:29N 34°37' E 135°16'0 0.0
2018-Feb-17 12:59N 34°37' E 135°16'0 0.0
2018-Feb-17 12:29N 34°37' E 135°16'0 0.0
2018-Feb-17 11:59N 34°37' E 135°16'0 0.0
2018-Feb-17 11:26N 34°37' E 135°16'0 0.0
2018-Feb-17 10:59N 34°37' E 135°16'1 1.2
2018-Feb-17 10:31N 34°36' E 135°16'612.0
2018-Feb-17 10:01N 34°31' E 135°12'611.7
2018-Feb-17 09:30N 34°26' E 135°08'611.8
2018-Feb-17 09:00N 34°22' E 135°04'510.9
2018-Feb-17 08:30N 34°18' E 134°59'5 9.6
2018-Feb-17 08:00N 34°13' E 134°57'611.6
2018-Feb-17 07:31N 34°09' E 134°53'611.9
2018-Feb-17 07:01N 34°06' E 134°46'712.2
2018-Feb-17 06:29N 34°04' E 134°39'3 0.4
2018-Feb-16 23:20N 34°03' E 134°35'2 1.7
2018-Feb-16 22:13N 34°02' E 134°37'0 0.1
2018-Feb-16 21:43N 34°03' E 134°37'0 0.0
2018-Feb-16 21:13N 34°03' E 134°37'0 0.0
2018-Feb-16 20:55N 34°03' E 134°37'0 0.0
2018-Feb-16 20:25N 34°03' E 134°37'0 0.0
2018-Feb-16 13:55N 34°03' E 134°37'0 0.0
2018-Feb-16 12:13N 34°03' E 134°37'0 0.0
2018-Feb-16 11:31N 34°03' E 134°37'0 0.0
2018-Feb-16 11:25N 34°03' E 134°37'0 0.0
2018-Feb-16 10:43N 34°03' E 134°37'0 0.0
2018-Feb-16 10:25N 34°03' E 134°37'0 0.0
2018-Feb-16 09:55N 34°03' E 134°37'0 0.1
2018-Feb-16 09:19N 34°03' E 134°37'0 0.2
2018-Feb-16 08:55N 34°02' E 134°37'0 0.3
2018-Feb-16 08:28N 34°03' E 134°37'510.6
2018-Feb-16 07:59N 34°06' E 134°43'611.8
2018-Feb-16 07:28N 34°08' E 134°49'612.2
2018-Feb-16 07:01N 34°12' E 134°54'612.6
2018-Feb-16 06:30N 34°17' E 134°58'611.9
2018-Feb-16 06:00N 34°23' E 134°60'612.8
2018-Feb-16 05:31N 34°29' E 135°02'612.8
2018-Feb-16 05:01N 34°36' E 135°03'713.2
2018-Feb-16 04:30N 34°37' E 134°55'713.5
2018-Feb-16 04:00N 34°39' E 134°47'612.3
2018-Feb-16 03:30N 34°40' E 134°40'612.0
2018-Feb-16 03:00N 34°42' E 134°33'611.8
2018-Feb-16 02:29N 34°42' E 134°25'4 7.4
2018-Feb-16 02:00N 34°45' E 134°22'0 0.1
2018-Feb-16 01:20N 34°45' E 134°22'0 0.0
2018-Feb-16 00:56N 34°45' E 134°22'0 0.0
2018-Feb-16 00:20N 34°45' E 134°22'0 0.0
2018-Feb-15 23:14N 34°45' E 134°22'0 0.1
2018-Feb-15 22:53N 34°45' E 134°22'2 6.1
2018-Feb-15 22:30N 34°42' E 134°23'1 0.2
2018-Feb-15 19:17N 34°42' E 134°23'0 0.0
2018-Feb-15 18:59N 34°42' E 134°23'0 0.0
2018-Feb-15 16:20N 34°42' E 134°23'  
Track history (hours):
 
Tides and Currents Weather Stations Pressure Air Temp Water Temp Dewpoint Dewpoint Depression Visibility Wind Speed Wind Dir Waves Ship Positions

Sumise Maru No.32

Last reported at 2018-Feb-25 12:55 UTC. Time now 2018-Feb-25 13:21 UTC.
Position N 34°42' E 135°16'.

Length 78 m; draft 4.3 m.

Type: Cargo ship. MMSI: 431006221.

Date/timePositionNaut miles runAvg speedWind from/ knotsBaromVisibWave heightAir tempDewpointWater temp
2018-Feb-25 12:55N 34°42' E 135°16'0 0.0
2018-Feb-25 12:28N 34°42' E 135°16'0 0.0
2018-Feb-25 11:58N 34°42' E 135°16'0 0.0
2018-Feb-25 11:28N 34°42' E 135°16'0 0.0
2018-Feb-25 10:58N 34°42' E 135°16'0 0.0
2018-Feb-25 10:28N 34°42' E 135°16'0 0.0
2018-Feb-25 09:58N 34°42' E 135°16'0 0.0
2018-Feb-25 09:28N 34°42' E 135°16'0 0.0
2018-Feb-25 08:58N 34°42' E 135°16'0 0.0
2018-Feb-25 08:28N 34°42' E 135°16'1 1.9
2018-Feb-25 08:00N 34°42' E 135°17'510.0
2018-Feb-25 07:31N 34°37' E 135°17'611.2
2018-Feb-25 07:00N 34°35' E 135°10'611.1
2018-Feb-25 06:30N 34°35' E 135°03'510.3
2018-Feb-25 06:00N 34°37' E 134°57'511.0
2018-Feb-25 05:31N 34°38' E 134°51'611.7
2018-Feb-25 05:00N 34°39' E 134°44'611.5
2018-Feb-25 04:30N 34°41' E 134°37'611.8
2018-Feb-25 04:00N 34°42' E 134°30'711.7
2018-Feb-25 03:26N 34°43' E 134°22'2 0.8
2018-Feb-25 00:50N 34°45' E 134°22'0 0.1
2018-Feb-25 00:20N 34°45' E 134°22'0 0.1
2018-Feb-24 23:54N 34°45' E 134°22'3 6.6
2018-Feb-24 23:30N 34°42' E 134°23'1 0.0
2018-Feb-24 08:46N 34°42' E 134°23'0 0.0
2018-Feb-24 08:29N 34°42' E 134°23'511.1
2018-Feb-24 08:00N 34°42' E 134°30'612.7
2018-Feb-24 07:30N 34°41' E 134°37'612.9
2018-Feb-24 07:00N 34°39' E 134°45'713.1
2018-Feb-24 06:31N 34°38' E 134°53'713.6
2018-Feb-24 06:00N 34°38' E 135°01'713.3
2018-Feb-24 05:31N 34°36' E 135°09'713.1
2018-Feb-24 05:00N 34°37' E 135°17'612.0
2018-Feb-24 04:31N 34°38' E 135°24'3 6.4
2018-Feb-24 04:01N 34°38' E 135°27'0 0.8
2018-Feb-24 03:28N 34°38' E 135°28'0 0.0
2018-Feb-24 02:58N 34°38' E 135°28'0 0.0
2018-Feb-24 02:28N 34°38' E 135°28'0 0.0
2018-Feb-24 01:55N 34°38' E 135°28'0 0.0
2018-Feb-24 01:28N 34°38' E 135°28'0 0.0
2018-Feb-24 00:55N 34°38' E 135°28'0 0.0
2018-Feb-24 00:28N 34°38' E 135°28'0 0.0
2018-Feb-23 23:58N 34°38' E 135°28'0 0.0
2018-Feb-23 23:28N 34°38' E 135°28'0 0.0
2018-Feb-23 22:58N 34°38' E 135°28'0 0.0
2018-Feb-23 22:22N 34°38' E 135°28'0 0.0
2018-Feb-23 21:58N 34°38' E 135°28'0 0.0
2018-Feb-23 21:22N 34°38' E 135°28'0 0.0
2018-Feb-23 20:58N 34°38' E 135°28'0 0.0
2018-Feb-23 20:30N 34°38' E 135°28'0 0.0
2018-Feb-23 19:58N 34°38' E 135°28'0 0.0
2018-Feb-23 19:28N 34°38' E 135°28'0 0.0
2018-Feb-23 18:58N 34°38' E 135°28'0 0.0
2018-Feb-23 18:28N 34°38' E 135°28'0 0.0
2018-Feb-23 18:01N 34°38' E 135°28'0 0.0
2018-Feb-23 17:28N 34°38' E 135°28'0 0.0
2018-Feb-23 16:58N 34°38' E 135°28'0 0.0
2018-Feb-23 16:28N 34°38' E 135°28'0 0.0
2018-Feb-23 15:58N 34°38' E 135°28'0 0.0
2018-Feb-23 15:31N 34°38' E 135°28'0 0.0
2018-Feb-23 15:01N 34°38' E 135°28'0 0.0
2018-Feb-23 14:30N 34°38' E 135°28'0 0.0
2018-Feb-23 13:58N 34°38' E 135°28'0 0.0
2018-Feb-23 13:30N 34°38' E 135°28'0 0.0
2018-Feb-23 13:01N 34°38' E 135°28'0 0.0
2018-Feb-23 12:28N 34°38' E 135°28'0 0.0
2018-Feb-23 12:01N 34°38' E 135°28'0 0.0
2018-Feb-23 11:31N 34°38' E 135°28'0 0.0
2018-Feb-23 11:01N 34°38' E 135°28'0 0.0
2018-Feb-23 10:30N 34°38' E 135°28'0 0.0
2018-Feb-23 10:00N 34°38' E 135°28'0 0.0
2018-Feb-23 09:31N 34°38' E 135°28'0 0.0
2018-Feb-23 09:01N 34°38' E 135°28'0 0.0
2018-Feb-23 08:30N 34°38' E 135°28'0 0.0
2018-Feb-23 07:57N 34°38' E 135°28'0 0.0
2018-Feb-23 07:25N 34°38' E 135°28'0 0.0
2018-Feb-23 07:00N 34°38' E 135°28'0 0.0
2018-Feb-23 06:31N 34°38' E 135°28'0 0.0
2018-Feb-23 06:00N 34°38' E 135°28'0 0.0
2018-Feb-23 05:30N 34°38' E 135°28'0 0.0
2018-Feb-23 04:57N 34°38' E 135°28'0 0.0
2018-Feb-23 04:28N 34°38' E 135°28'0 0.0
2018-Feb-23 03:58N 34°38' E 135°28'0 0.0
2018-Feb-23 03:30N 34°38' E 135°28'0 0.0
2018-Feb-23 03:01N 34°38' E 135°28'0 0.0
2018-Feb-23 02:30N 34°38' E 135°28'0 0.0
2018-Feb-23 01:57N 34°38' E 135°28'0 0.0
2018-Feb-23 01:31N 34°38' E 135°28'0 0.0
2018-Feb-23 01:00N 34°38' E 135°28'1 2.3
2018-Feb-23 00:30N 34°38' E 135°27'510.0
2018-Feb-23 00:00N 34°37' E 135°21'2 3.8
2018-Feb-22 23:28N 34°35' E 135°19'0 0.1
2018-Feb-22 22:55N 34°35' E 135°19'0 0.1
2018-Feb-22 22:28N 34°35' E 135°19'0 0.0
2018-Feb-22 21:58N 34°35' E 135°19'0 0.0
2018-Feb-22 21:28N 34°35' E 135°19'0 0.0
2018-Feb-22 20:58N 34°35' E 135°19'0 0.0
2018-Feb-22 20:28N 34°35' E 135°19'0 0.0
2018-Feb-22 19:58N 34°35' E 135°19'0 0.0
2018-Feb-22 19:28N 34°35' E 135°19'0 0.0
2018-Feb-22 18:58N 34°35' E 135°19'0 0.0
2018-Feb-22 18:28N 34°35' E 135°19'0 0.0
2018-Feb-22 17:58N 34°35' E 135°19'0 0.0
2018-Feb-22 17:28N 34°35' E 135°19'0 0.0
2018-Feb-22 16:58N 34°35' E 135°19'0 0.0
2018-Feb-22 16:28N 34°35' E 135°19'0 0.8
2018-Feb-22 16:00N 34°35' E 135°18'611.4
2018-Feb-22 15:30N 34°31' E 135°14'612.1
2018-Feb-22 15:01N 34°26' E 135°10'612.5
2018-Feb-22 14:30N 34°21' E 135°06'612.7
2018-Feb-22 14:00N 34°15' E 135°02'612.0
2018-Feb-22 13:30N 34°09' E 134°60'612.1
2018-Feb-22 13:00N 34°03' E 134°57'612.1
2018-Feb-22 12:30N 33°58' E 134°55'612.0
2018-Feb-22 11:59N 33°52' E 134°52'2 0.1
2018-Feb-21 08:32N 33°51' E 134°51'013.6
2018-Feb-21 08:30N 33°51' E 134°51'713.6
2018-Feb-21 07:59N 33°58' E 134°53'613.3
2018-Feb-21 07:30N 34°04' E 134°55'713.4
2018-Feb-21 07:00N 34°11' E 134°56'714.0
2018-Feb-21 06:30N 34°17' E 134°58'612.8
2018-Feb-21 06:00N 34°23' E 135°02'713.3
2018-Feb-21 05:30N 34°27' E 135°08'612.6
2018-Feb-21 05:00N 34°31' E 135°15'612.6
2018-Feb-21 04:30N 34°35' E 135°20'510.3
2018-Feb-21 04:00N 34°35' E 135°27'0 0.7
2018-Feb-21 03:28N 34°34' E 135°27'0 0.0
2018-Feb-21 02:58N 34°34' E 135°27'0 0.0
2018-Feb-21 02:28N 34°34' E 135°27'0 0.0
2018-Feb-21 01:58N 34°34' E 135°27'0 0.0
2018-Feb-21 01:28N 34°34' E 135°27'0 0.0
2018-Feb-21 00:58N 34°34' E 135°27'0 0.0
2018-Feb-21 00:28N 34°34' E 135°27'0 0.0
2018-Feb-20 23:58N 34°34' E 135°27'0 0.0
2018-Feb-20 23:28N 34°34' E 135°27'0 0.0
2018-Feb-20 22:58N 34°34' E 135°27'0 0.0
2018-Feb-20 22:28N 34°34' E 135°27'0 0.9
2018-Feb-20 22:00N 34°35' E 135°27'4 7.2
2018-Feb-20 21:30N 34°36' E 135°23'4 6.9
2018-Feb-20 20:59N 34°35' E 135°19'0 0.0
2018-Feb-20 20:29N 34°35' E 135°19'0 0.0
2018-Feb-20 19:59N 34°35' E 135°19'0 0.0
2018-Feb-20 19:29N 34°35' E 135°19'0 0.0
2018-Feb-20 18:59N 34°35' E 135°19'0 0.0
2018-Feb-20 18:29N 34°35' E 135°19'0 0.0
2018-Feb-20 17:59N 34°35' E 135°19'0 0.0
2018-Feb-20 17:29N 34°35' E 135°19'0 0.1
2018-Feb-20 16:59N 34°35' E 135°19'0 0.1
2018-Feb-20 16:29N 34°35' E 135°19'0 0.1
2018-Feb-20 15:59N 34°35' E 135°19'0 0.1
2018-Feb-20 15:29N 34°35' E 135°19'0 0.0
2018-Feb-20 14:58N 34°35' E 135°19'0 0.0
2018-Feb-20 14:29N 34°35' E 135°19'0 0.1
2018-Feb-20 13:59N 34°35' E 135°19'0 0.0
2018-Feb-20 13:29N 34°35' E 135°19'0 0.0
2018-Feb-20 12:59N 34°35' E 135°19'0 0.1
2018-Feb-20 12:29N 34°35' E 135°19'0 0.0
2018-Feb-20 11:59N 34°35' E 135°19'0 0.0
2018-Feb-20 11:29N 34°35' E 135°19'0 0.0
2018-Feb-20 10:59N 34°35' E 135°19'0 0.0
2018-Feb-20 10:29N 34°35' E 135°19'0 0.0
2018-Feb-20 09:59N 34°35' E 135°19'0 0.0
2018-Feb-20 09:28N 34°35' E 135°19'0 0.0
2018-Feb-20 08:59N 34°35' E 135°19'0 0.0
2018-Feb-20 08:29N 34°35' E 135°19'0 0.0
2018-Feb-20 07:59N 34°35' E 135°19'0 0.0
2018-Feb-20 07:29N 34°35' E 135°19'0 0.1
2018-Feb-20 06:59N 34°35' E 135°19'2 4.6
2018-Feb-20 06:30N 34°35' E 135°16'612.3
2018-Feb-20 06:00N 34°35' E 135°09'611.9
2018-Feb-20 05:30N 34°37' E 135°02'612.1
2018-Feb-20 05:00N 34°37' E 134°55'612.1
2018-Feb-20 04:30N 34°39' E 134°48'611.7
2018-Feb-20 04:00N 34°41' E 134°41'611.4
2018-Feb-20 03:30N 34°42' E 134°34'611.9
2018-Feb-20 02:59N 34°42' E 134°26'4 8.6
2018-Feb-20 02:30N 34°44' E 134°22'1 0.6
2018-Feb-20 01:18N 34°45' E 134°22'0 0.0
2018-Feb-20 01:00N 34°45' E 134°22'0 0.0
2018-Feb-19 23:36N 34°45' E 134°22'0 0.0
2018-Feb-19 23:24N 34°45' E 134°22'1 2.5
2018-Feb-19 22:57N 34°44' E 134°22'2 1.1
2018-Feb-19 21:14N 34°42' E 134°23'0 0.0
2018-Feb-19 17:08N 34°42' E 134°23'0 0.1
2018-Feb-19 16:50N 34°42' E 134°23'0 0.0
2018-Feb-19 12:31N 34°42' E 134°23'0 0.0
2018-Feb-19 12:25N 34°42' E 134°23'0 0.0
2018-Feb-19 11:07N 34°42' E 134°23'0 0.0
2018-Feb-19 10:49N 34°42' E 134°23'0 0.0
2018-Feb-19 10:25N 34°42' E 134°23'0 0.1
2018-Feb-19 09:49N 34°42' E 134°23'0 0.1
2018-Feb-19 09:25N 34°42' E 134°23'0 0.2
2018-Feb-19 08:54N 34°42' E 134°23'3 3.1
2018-Feb-19 07:55N 34°45' E 134°22'0 0.0
2018-Feb-19 01:02N 34°45' E 134°22'0 1.2
2018-Feb-19 00:59N 34°45' E 134°22'3 3.2
2018-Feb-19 00:03N 34°42' E 134°23'0 0.0
2018-Feb-18 23:45N 34°42' E 134°23'0 0.0
2018-Feb-18 20:33N 34°42' E 134°23'0 0.0
2018-Feb-18 20:27N 34°42' E 134°23'0 0.0
2018-Feb-18 16:21N 34°42' E 134°23'0 0.0
2018-Feb-18 13:03N 34°42' E 134°23'0 0.1
2018-Feb-18 12:42N 34°42' E 134°23'1 7.6
2018-Feb-18 12:30N 34°42' E 134°25'612.4
2018-Feb-18 12:00N 34°42' E 134°33'612.3
2018-Feb-18 11:31N 34°40' E 134°40'612.3
2018-Feb-18 11:00N 34°39' E 134°47'612.7
2018-Feb-18 10:30N 34°37' E 134°55'611.9
2018-Feb-18 10:00N 34°37' E 135°02'611.6
2018-Feb-18 09:30N 34°36' E 135°09'611.1
2018-Feb-18 09:01N 34°37' E 135°15'5 9.3
2018-Feb-18 08:30N 34°42' E 135°14'0 0.1
2018-Feb-18 08:00N 34°42' E 135°14'0 0.0
2018-Feb-18 07:30N 34°42' E 135°14'0 0.0
2018-Feb-18 07:00N 34°42' E 135°14'0 0.0
2018-Feb-18 06:30N 34°42' E 135°14'0 0.0
2018-Feb-18 06:00N 34°42' E 135°14'0 0.0
2018-Feb-18 05:30N 34°42' E 135°14'0 0.0
2018-Feb-18 05:00N 34°42' E 135°14'0 0.0
2018-Feb-18 04:30N 34°42' E 135°14'0 0.0
2018-Feb-18 04:00N 34°42' E 135°14'0 0.0
2018-Feb-18 03:30N 34°42' E 135°14'0 0.0
2018-Feb-18 03:00N 34°42' E 135°14'0 0.0
2018-Feb-18 02:30N 34°42' E 135°14'0 0.0
2018-Feb-18 02:00N 34°42' E 135°14'0 0.2
2018-Feb-18 01:30N 34°42' E 135°14'510.1
2018-Feb-18 01:01N 34°37' E 135°16'0 0.6
2018-Feb-18 00:29N 34°37' E 135°16'0 0.0
2018-Feb-17 23:59N 34°37' E 135°16'0 0.0
2018-Feb-17 23:29N 34°37' E 135°16'0 0.0
2018-Feb-17 22:59N 34°37' E 135°16'0 0.1
2018-Feb-17 22:29N 34°37' E 135°16'0 0.1
2018-Feb-17 21:59N 34°37' E 135°16'0 0.0
2018-Feb-17 21:29N 34°37' E 135°16'0 0.0
2018-Feb-17 20:59N 34°37' E 135°16'0 0.0
2018-Feb-17 20:29N 34°37' E 135°16'0 0.0
2018-Feb-17 19:59N 34°37' E 135°16'0 0.0
2018-Feb-17 19:29N 34°37' E 135°16'0 0.0
2018-Feb-17 18:59N 34°37' E 135°16'0 0.0
2018-Feb-17 18:29N 34°37' E 135°16'0 0.0
2018-Feb-17 17:59N 34°37' E 135°16'0 0.0
2018-Feb-17 17:29N 34°37' E 135°16'0 0.0
2018-Feb-17 16:56N 34°37' E 135°16'0 0.0
2018-Feb-17 16:29N 34°37' E 135°16'0 0.0
2018-Feb-17 15:59N 34°37' E 135°16'0 0.0
2018-Feb-17 15:29N 34°37' E 135°16'0 0.0
2018-Feb-17 14:59N 34°37' E 135°16'0 0.0
2018-Feb-17 14:29N 34°37' E 135°16'0 0.0
2018-Feb-17 13:59N 34°37' E 135°16'0 0.0
2018-Feb-17 13:29N 34°37' E 135°16'0 0.0
2018-Feb-17 12:59N 34°37' E 135°16'0 0.0
2018-Feb-17 12:29N 34°37' E 135°16'0 0.0
2018-Feb-17 11:59N 34°37' E 135°16'0 0.0
2018-Feb-17 11:26N 34°37' E 135°16'0 0.0
2018-Feb-17 10:59N 34°37' E 135°16'1 1.2
2018-Feb-17 10:31N 34°36' E 135°16'612.0
2018-Feb-17 10:01N 34°31' E 135°12'611.7
2018-Feb-17 09:30N 34°26' E 135°08'611.8
2018-Feb-17 09:00N 34°22' E 135°04'510.9
2018-Feb-17 08:30N 34°18' E 134°59'5 9.6
2018-Feb-17 08:00N 34°13' E 134°57'611.6
2018-Feb-17 07:31N 34°09' E 134°53'611.9
2018-Feb-17 07:01N 34°06' E 134°46'712.2
2018-Feb-17 06:29N 34°04' E 134°39'3 0.4
2018-Feb-16 23:20N 34°03' E 134°35'2 1.7
2018-Feb-16 22:13N 34°02' E 134°37'0 0.1
2018-Feb-16 21:43N 34°03' E 134°37'0 0.0
2018-Feb-16 21:13N 34°03' E 134°37'0 0.0
2018-Feb-16 20:55N 34°03' E 134°37'0 0.0
2018-Feb-16 20:25N 34°03' E 134°37'0 0.0
2018-Feb-16 13:55N 34°03' E 134°37'0 0.0
2018-Feb-16 12:13N 34°03' E 134°37'0 0.0
2018-Feb-16 11:31N 34°03' E 134°37'0 0.0
2018-Feb-16 11:25N 34°03' E 134°37'0 0.0
2018-Feb-16 10:43N 34°03' E 134°37'0 0.0
2018-Feb-16 10:25N 34°03' E 134°37'0 0.0
2018-Feb-16 09:55N 34°03' E 134°37'0 0.1
2018-Feb-16 09:19N 34°03' E 134°37'0 0.2
2018-Feb-16 08:55N 34°02' E 134°37'0 0.3
2018-Feb-16 08:28N 34°03' E 134°37'510.6
2018-Feb-16 07:59N 34°06' E 134°43'611.8
2018-Feb-16 07:28N 34°08' E 134°49'612.2
2018-Feb-16 07:01N 34°12' E 134°54'612.6
2018-Feb-16 06:30N 34°17' E 134°58'611.9
2018-Feb-16 06:00N 34°23' E 134°60'612.8
2018-Feb-16 05:31N 34°29' E 135°02'612.8
2018-Feb-16 05:01N 34°36' E 135°03'713.2
2018-Feb-16 04:30N 34°37' E 134°55'713.5
2018-Feb-16 04:00N 34°39' E 134°47'612.3
2018-Feb-16 03:30N 34°40' E 134°40'612.0
2018-Feb-16 03:00N 34°42' E 134°33'611.8
2018-Feb-16 02:29N 34°42' E 134°25'4 7.4
2018-Feb-16 02:00N 34°45' E 134°22'0 0.1
2018-Feb-16 01:20N 34°45' E 134°22'0 0.0
2018-Feb-16 00:56N 34°45' E 134°22'0 0.0
2018-Feb-16 00:20N 34°45' E 134°22'0 0.0
2018-Feb-15 23:14N 34°45' E 134°22'0 0.1
2018-Feb-15 22:53N 34°45' E 134°22'2 6.1
2018-Feb-15 22:30N 34°42' E 134°23'1 0.2
2018-Feb-15 19:17N 34°42' E 134°23'0 0.0
2018-Feb-15 18:59N 34°42' E 134°23'0 0.0
2018-Feb-15 16:20N 34°42' E 134°23'  

Dump ship's entire track history